Nearby METAR Reports

 

KSNK - Snyder/Winston, Texas, USA
Distance from station: SSE 25mi, 41km
Updated: Thu, 03-Dec-2020 10:15pm CST
Clear
Clear
 Wind from N
Wind: N 5 mph , 7 km/h
Temperature: 32°F , 0°C
Wind Chill: 27°F , -3°C
Dew Point: 25°F , -4°C
Humidity: 75%
Barometer: 30.30 inHg , 1026.1 hPa
Clouds: Clear
Visibility: 10 miles , 16 km
2020/12/04 04:15 KSNK 040415Z AUTO 35004KT 10SM CLR 00/M04 A3030 RMK AO2 T00001041
KSWW - Sweetwater, Texas, USA
Distance from station: SE 56mi, 90km
Updated: Thu, 03-Dec-2020 10:15pm CST
Clear
Clear
 Wind from NW
Wind: NW 3 mph , 6 km/h
Temperature: 36°F , 2°C
Dew Point: 28°F , -2°C
Humidity: 75%
Barometer: 30.31 inHg , 1026.4 hPa
Clouds: Clear
Visibility: 10 miles , 16 km
2020/12/04 04:15 KSWW 040415Z AUTO 31003KT 10SM CLR 02/M02 A3031 RMK AO2 T00211025
 
KLBB - Lubbock, Texas, USA
Distance from station: NW 59mi, 94km
Updated: Thu, 03-Dec-2020 9:53pm CST
Clear
Clear
 Wind from WNW
Wind: WNW 3 mph , 6 km/h
Temperature: 27°F , -3°C
Dew Point: 18°F , -8°C
Humidity: 69%
Barometer: 30.26 inHg , 1024.7 hPa
Clouds: Clear
Visibility: 10 miles , 16 km
2020/12/04 03:53 KLBB 040353Z 30003KT 10SM CLR M03/M08 A3026 RMK AO2 SLP260 T10281078
KPVW - Plainview, Texas, USA
Distance from station: NNW 85mi, 137km
Updated: Thu, 03-Dec-2020 10:15pm CST
Clear
Clear
 Wind from WNW
Wind: WNW 6 mph , 9 km/h
Temperature: 23°F , -5°C
Wind Chill: 16°F , -9°C
Dew Point: 19°F , -7°C
Humidity: 86%
Barometer: 30.25 inHg , 1024.4 hPa
Clouds: Clear
Visibility: 10 miles , 16 km
2020/12/04 04:15 KPVW 040415Z AUTO 30005KT 10SM CLR M05/M07 A3025 RMK AO2 T10491074
 
KDYS - Dyess Afb/Abilen, Texas, USA
Distance from station: ESE 88mi, 141km
Updated: Thu, 03-Dec-2020 9:56pm CST
Clear
Clear
 Wind from calm
Wind: Calm
Temperature: 34°F , 1°C
Dew Point: 23°F , -5°C
Humidity: 65%
Barometer: 30.28 inHg , 1025.4 hPa
Clouds: Clear
Visibility: 10 miles , 16 km
2020/12/04 03:56 KDYS 040356Z AUTO 00000KT 10SM CLR 01/M05 A3028 RMK AO2 SLP267 T00051047
KGNC - Seminole, Texas, USA
Distance from station: WSW 89mi, 144km
Updated: Thu, 03-Dec-2020 10:10pm CST
Clear
Clear
 Wind from NW
Wind: NW 3 mph , 6 km/h
Temperature: 25°F , -4°C
Dew Point: 16°F , -9°C
Humidity: 69%
Barometer: 30.33 inHg , 1027.1 hPa
Clouds: Clear
Visibility: 10 miles , 16 km
2020/12/04 04:10 KGNC 040410Z AUTO 31003KT 10SM CLR M04/M09 A3033 RMK AO2 T10381095
 
KE11 - Andrews, Texas, USA
Distance from station: WSW 93mi, 149km
Updated: Thu, 03-Dec-2020 10:15pm CST
Clear
Clear
 Wind from NNW
Wind: NNW 3 mph , 6 km/h
Temperature: 30°F , -1°C
Dew Point: 18°F , -8°C
Humidity: 59%
Barometer: 30.30 inHg , 1026.1 hPa
Clouds: Clear
Visibility: 10 miles , 16 km
2020/12/04 04:15 KE11 040415Z AUTO 33003KT 10SM CLR M01/M08 A3030 RMK AO2 T10131084
KABI - Abilene, Texas, USA
Distance from station: ESE 96mi, 154km
Updated: Thu, 03-Dec-2020 9:52pm CST
Clear
Clear
 Wind from calm
Wind: Calm
Temperature: 37°F , 3°C
Dew Point: 28°F , -2°C
Humidity: 70%
Barometer: 30.29 inHg , 1025.7 hPa
Clouds: Clear
Visibility: 10 miles , 16 km
2020/12/04 03:52 KABI 040352Z 00000KT 10SM CLR 03/M02 A3029 RMK AO2 SLP261 T00331017 $
 
KMAF - Midland, Texas, USA
Distance from station: SW 96mi, 154km
Updated: Thu, 03-Dec-2020 9:53pm CST
Clear
Clear
 Wind from NNW
Wind: NNW 7 mph , 11 km/h
Temperature: 28°F , -2°C
Wind Chill: 21°F , -6°C
Dew Point: 21°F , -6°C
Humidity: 74%
Barometer: 30.28 inHg , 1025.4 hPa
Clouds: Clear
Visibility: 10 miles , 16 km
2020/12/04 03:53 KMAF 040353Z 33006KT 10SM CLR M02/M06 A3028 RMK AO2 SLP258 T10171056
KCDS - Childress, Texas, USA
Distance from station: NNE 110mi, 177km
Updated: Thu, 03-Dec-2020 9:53pm CST
Clear
Clear
 Wind from WNW
Wind: WNW 6 mph , 9 km/h
Temperature: 28°F , -2°C
Wind Chill: 21°F , -6°C
Dew Point: 23°F , -5°C
Humidity: 80%
Barometer: 30.28 inHg , 1025.4 hPa
Clouds: Clear
Visibility: 10 miles , 16 km
2020/12/04 03:53 KCDS 040353Z AUTO 29005KT 10SM CLR M02/M05 A3028 RMK AO2 SLP264 T10171050
 
KSJT - San Angelo, Texas, USA
Distance from station: SSE 121mi, 194km
Updated: Thu, 03-Dec-2020 9:51pm CST
Clear
Clear
 Wind from calm
Wind: Calm
Temperature: 27°F , -3°C
Dew Point: 19°F , -7°C
Humidity: 74%
Barometer: 30.30 inHg , 1026.1 hPa
Clouds: Clear
Visibility: 10 miles , 16 km
2020/12/04 03:51 KSJT 040351Z AUTO 00000KT 10SM CLR M03/M07 A3030 RMK AO2 SLP273 T10331067
KHOB - Hobbs/Lea Co., New Mexico, USA
Distance from station: WSW 122mi, 196km
Updated: Thu, 03-Dec-2020 10:15pm CST
Clear
Clear
 Wind from NW
Wind: NW 8 mph , 13 km/h
Temperature: 25°F , -4°C
Wind Chill: 16°F , -9°C
Dew Point: 10°F , -12°C
Humidity: 54%
Barometer: 30.28 inHg , 1025.4 hPa
Clouds: Clear
Visibility: 10 miles , 16 km
2020/12/04 04:15 KHOB 040415Z AUTO 31007KT 10SM CLR M04/M12 A3028 RMK AO2
 
KCOM - Coleman Muni, Texas, USA
Distance from station: SE 131mi, 212km
Updated: Thu, 03-Dec-2020 10:15pm CST

 Wind from WNW
Wind: WNW 6 mph , 9 km/h
Temperature: 34°F , 1°C
Wind Chill: 29°F , -2°C
Dew Point: 28°F , -2°C
Humidity: 81%
Barometer: 30.30 inHg , 1026.1 hPa
Visibility: 10 miles , 16 km
2020/12/04 04:15 KCOM 040415Z AUTO 29005KT 10SM 01/M02 A3030 RMK AO2 T00121025
KBKD - Breckenridge, Texas, USA
Distance from station: E 134mi, 215km
Updated: Thu, 03-Dec-2020 10:15pm CST
Partly cloudy
Partly cloudy
 Wind from calm
Wind: Calm
Temperature: 37°F , 3°C
Dew Point: 32°F , 0°C
Humidity: 81%
Barometer: 30.30 inHg , 1026.1 hPa
Clouds: Partly cloudy
Visibility: 10 miles , 16 km
Cloud details: Partly cloudy 4100 ft
2020/12/04 04:15 KBKD 040415Z AUTO 00000KT 10SM SCT041 03/00 A3030 RMK AO2 T00301001
 
KF05 - Vernon Wilbarger, Texas, USA
Distance from station: NE 137mi, 220km
Updated: Thu, 03-Dec-2020 10:15pm CST
Clear
Clear
 Wind from NW
Wind: NW 6 mph , 9 km/h
Temperature: 32°F , 0°C
Wind Chill: 26°F , -3°C
Dew Point: 28°F , -2°C
Humidity: 87%
Barometer: 30.30 inHg , 1026.1 hPa
Clouds: Clear
Visibility: 10 miles , 16 km
2020/12/04 04:15 KF05 040415Z AUTO 31005KT 10SM CLR 00/M02 A3030 RMK AO2 T10011025